sensor_id;sensor_type;location;lat;lon;timestamp;P1;durP1;ratioP1;P2;durP2;ratioP2
77226;SDS011;66234;47.642;19.144;2023-04-25T00:00:23;2.35;;;1.77;;
77226;SDS011;66234;47.642;19.144;2023-04-25T00:03:27;2.90;;;1.70;;
77226;SDS011;66234;47.642;19.144;2023-04-25T00:06:32;3.13;;;1.50;;
77226;SDS011;66234;47.642;19.144;2023-04-25T00:09:38;2.33;;;1.37;;
77226;SDS011;66234;47.642;19.144;2023-04-25T00:12:40;2.65;;;1.25;;
77226;SDS011;66234;47.642;19.144;2023-04-25T00:15:43;2.65;;;1.45;;
77226;SDS011;66234;47.642;19.144;2023-04-25T00:18:47;1.77;;;0.93;;
77226;SDS011;66234;47.642;19.144;2023-04-25T00:21:54;1.30;;;0.80;;
77226;SDS011;66234;47.642;19.144;2023-04-25T00:24:57;2.60;;;1.43;;
77226;SDS011;66234;47.642;19.144;2023-04-25T00:28:02;2.67;;;1.50;;
77226;SDS011;66234;47.642;19.144;2023-04-25T00:31:05;2.83;;;1.38;;
77226;SDS011;66234;47.642;19.144;2023-04-25T00:34:07;2.92;;;1.23;;
77226;SDS011;66234;47.642;19.144;2023-04-25T00:37:10;2.17;;;1.07;;
77226;SDS011;66234;47.642;19.144;2023-04-25T00:40:13;1.47;;;1.00;;
77226;SDS011;66234;47.642;19.144;2023-04-25T00:43:16;1.40;;;0.80;;
77226;SDS011;66234;47.642;19.144;2023-04-25T00:46:19;1.58;;;1.05;;
77226;SDS011;66234;47.642;19.144;2023-04-25T00:49:22;1.88;;;0.93;;
77226;SDS011;66234;47.642;19.144;2023-04-25T00:52:24;1.23;;;0.80;;
77226;SDS011;66234;47.642;19.144;2023-04-25T00:55:27;2.30;;;1.20;;
77226;SDS011;66234;47.642;19.144;2023-04-25T00:58:30;2.53;;;0.77;;
77226;SDS011;66234;47.642;19.144;2023-04-25T01:01:32;1.77;;;0.77;;
77226;SDS011;66234;47.642;19.144;2023-04-25T01:04:35;1.30;;;0.90;;
77226;SDS011;66234;47.642;19.144;2023-04-25T01:07:38;2.13;;;1.10;;
77226;SDS011;66234;47.642;19.144;2023-04-25T01:10:41;2.30;;;1.30;;
77226;SDS011;66234;47.642;19.144;2023-04-25T01:13:44;1.70;;;0.90;;
77226;SDS011;66234;47.642;19.144;2023-04-25T01:16:47;2.25;;;1.30;;
77226;SDS011;66234;47.642;19.144;2023-04-25T01:19:50;2.38;;;1.20;;
77226;SDS011;66234;47.642;19.144;2023-04-25T01:22:53;2.63;;;1.57;;
77226;SDS011;66234;47.642;19.144;2023-04-25T01:25:57;1.70;;;1.03;;
77226;SDS011;66234;47.642;19.144;2023-04-25T01:29:00;1.40;;;1.00;;
77226;SDS011;66234;47.642;19.144;2023-04-25T01:32:03;2.25;;;1.30;;
77226;SDS011;66234;47.642;19.144;2023-04-25T01:35:08;5.03;;;1.58;;
77226;SDS011;66234;47.642;19.144;2023-04-25T01:38:13;2.43;;;1.70;;
77226;SDS011;66234;47.642;19.144;2023-04-25T01:41:16;2.47;;;1.67;;
77226;SDS011;66234;47.642;19.144;2023-04-25T01:44:20;5.72;;;2.17;;
77226;SDS011;66234;47.642;19.144;2023-04-25T01:47:23;2.35;;;1.50;;
77226;SDS011;66234;47.642;19.144;2023-04-25T01:50:25;2.33;;;1.70;;
77226;SDS011;66234;47.642;19.144;2023-04-25T01:53:28;2.90;;;1.90;;
77226;SDS011;66234;47.642;19.144;2023-04-25T01:56:32;4.90;;;2.17;;
77226;SDS011;66234;47.642;19.144;2023-04-25T01:59:36;2.83;;;1.77;;
77226;SDS011;66234;47.642;19.144;2023-04-25T02:02:47;2.67;;;1.77;;
77226;SDS011;66234;47.642;19.144;2023-04-25T02:05:57;3.67;;;1.60;;
77226;SDS011;66234;47.642;19.144;2023-04-25T02:09:01;2.57;;;1.77;;
77226;SDS011;66234;47.642;19.144;2023-04-25T02:12:03;2.57;;;1.70;;
77226;SDS011;66234;47.642;19.144;2023-04-25T02:15:24;3.38;;;1.90;;
77226;SDS011;66234;47.642;19.144;2023-04-25T02:18:31;1.60;;;1.08;;
77226;SDS011;66234;47.642;19.144;2023-04-25T02:21:34;2.55;;;1.50;;
77226;SDS011;66234;47.642;19.144;2023-04-25T02:24:38;2.97;;;1.27;;
77226;SDS011;66234;47.642;19.144;2023-04-25T02:27:41;3.47;;;1.47;;
77226;SDS011;66234;47.642;19.144;2023-04-25T02:30:44;3.00;;;1.67;;
77226;SDS011;66234;47.642;19.144;2023-04-25T02:33:47;1.85;;;1.30;;
77226;SDS011;66234;47.642;19.144;2023-04-25T02:36:50;2.85;;;1.50;;
77226;SDS011;66234;47.642;19.144;2023-04-25T02:39:53;2.43;;;1.30;;
77226;SDS011;66234;47.642;19.144;2023-04-25T02:42:55;2.67;;;1.10;;
77226;SDS011;66234;47.642;19.144;2023-04-25T02:46:01;1.75;;;0.80;;
77226;SDS011;66234;47.642;19.144;2023-04-25T02:49:03;1.20;;;0.73;;
77226;SDS011;66234;47.642;19.144;2023-04-25T02:52:07;1.40;;;0.90;;
77226;SDS011;66234;47.642;19.144;2023-04-25T02:55:10;2.20;;;0.70;;
77226;SDS011;66234;47.642;19.144;2023-04-25T02:58:13;0.83;;;0.60;;
77226;SDS011;66234;47.642;19.144;2023-04-25T03:01:21;3.63;;;0.82;;
77226;SDS011;66234;47.642;19.144;2023-04-25T03:04:24;1.70;;;0.70;;
77226;SDS011;66234;47.642;19.144;2023-04-25T03:07:27;1.77;;;0.85;;
77226;SDS011;66234;47.642;19.144;2023-04-25T03:10:30;0.80;;;0.50;;
77226;SDS011;66234;47.642;19.144;2023-04-25T03:13:37;2.60;;;1.00;;
77226;SDS011;66234;47.642;19.144;2023-04-25T03:16:40;2.67;;;0.98;;
77226;SDS011;66234;47.642;19.144;2023-04-25T03:19:43;1.80;;;1.00;;
77226;SDS011;66234;47.642;19.144;2023-04-25T03:22:46;1.85;;;1.25;;
77226;SDS011;66234;47.642;19.144;2023-04-25T03:25:48;2.53;;;1.30;;
77226;SDS011;66234;47.642;19.144;2023-04-25T03:28:51;1.30;;;0.70;;
77226;SDS011;66234;47.642;19.144;2023-04-25T03:31:54;1.75;;;1.05;;
77226;SDS011;66234;47.642;19.144;2023-04-25T03:34:57;1.42;;;0.88;;
77226;SDS011;66234;47.642;19.144;2023-04-25T03:38:01;2.30;;;1.00;;
77226;SDS011;66234;47.642;19.144;2023-04-25T03:41:09;1.40;;;1.00;;
77226;SDS011;66234;47.642;19.144;2023-04-25T03:44:21;2.40;;;1.07;;
77226;SDS011;66234;47.642;19.144;2023-04-25T03:47:25;2.63;;;1.15;;
77226;SDS011;66234;47.642;19.144;2023-04-25T03:50:28;1.45;;;0.70;;
77226;SDS011;66234;47.642;19.144;2023-04-25T03:53:31;1.30;;;0.60;;
77226;SDS011;66234;47.642;19.144;2023-04-25T03:56:53;1.00;;;0.60;;
77226;SDS011;66234;47.642;19.144;2023-04-25T03:59:59;0.90;;;0.63;;
77226;SDS011;66234;47.642;19.144;2023-04-25T04:03:05;0.73;;;0.43;;
77226;SDS011;66234;47.642;19.144;2023-04-25T04:06:08;1.00;;;0.50;;
77226;SDS011;66234;47.642;19.144;2023-04-25T04:09:14;1.33;;;0.70;;
77226;SDS011;66234;47.642;19.144;2023-04-25T04:12:19;1.07;;;0.60;;
77226;SDS011;66234;47.642;19.144;2023-04-25T04:15:21;1.73;;;0.40;;
77226;SDS011;66234;47.642;19.144;2023-04-25T04:18:24;1.05;;;0.40;;
77226;SDS011;66234;47.642;19.144;2023-04-25T04:21:28;1.50;;;0.80;;
77226;SDS011;66234;47.642;19.144;2023-04-25T04:24:30;1.83;;;0.80;;
77226;SDS011;66234;47.642;19.144;2023-04-25T04:27:37;2.50;;;0.80;;
77226;SDS011;66234;47.642;19.144;2023-04-25T04:30:56;2.83;;;0.70;;
77226;SDS011;66234;47.642;19.144;2023-04-25T04:34:01;0.90;;;0.73;;
77226;SDS011;66234;47.642;19.144;2023-04-25T04:37:04;2.10;;;0.68;;
77226;SDS011;66234;47.642;19.144;2023-04-25T04:40:09;1.05;;;0.55;;
77226;SDS011;66234;47.642;19.144;2023-04-25T04:43:23;1.40;;;0.70;;
77226;SDS011;66234;47.642;19.144;2023-04-25T04:47:01;1.73;;;1.20;;
77226;SDS011;66234;47.642;19.144;2023-04-25T04:50:14;2.15;;;0.88;;
77226;SDS011;66234;47.642;19.144;2023-04-25T04:53:38;1.58;;;1.00;;
77226;SDS011;66234;47.642;19.144;2023-04-25T04:57:03;2.20;;;0.98;;
77226;SDS011;66234;47.642;19.144;2023-04-25T05:00:29;1.10;;;0.90;;
77226;SDS011;66234;47.642;19.144;2023-04-25T05:03:57;4.07;;;0.80;;
77226;SDS011;66234;47.642;19.144;2023-04-25T05:07:29;1.60;;;0.82;;
77226;SDS011;66234;47.642;19.144;2023-04-25T05:10:39;1.15;;;0.80;;
77226;SDS011;66234;47.642;19.144;2023-04-25T05:13:53;1.17;;;0.80;;
77226;SDS011;66234;47.642;19.144;2023-04-25T05:17:14;1.73;;;0.83;;
77226;SDS011;66234;47.642;19.144;2023-04-25T05:20:36;1.37;;;0.83;;
77226;SDS011;66234;47.642;19.144;2023-04-25T05:23:54;1.67;;;0.63;;
77226;SDS011;66234;47.642;19.144;2023-04-25T05:27:17;1.67;;;0.80;;
77226;SDS011;66234;47.642;19.144;2023-04-25T05:30:42;1.58;;;0.93;;
77226;SDS011;66234;47.642;19.144;2023-04-25T05:33:49;2.67;;;1.10;;
77226;SDS011;66234;47.642;19.144;2023-04-25T05:36:53;1.97;;;0.67;;
77226;SDS011;66234;47.642;19.144;2023-04-25T05:39:56;1.52;;;0.77;;
77226;SDS011;66234;47.642;19.144;2023-04-25T05:43:19;1.65;;;0.40;;
77226;SDS011;66234;47.642;19.144;2023-04-25T05:46:31;0.95;;;0.47;;
77226;SDS011;66234;47.642;19.144;2023-04-25T05:49:58;1.10;;;0.60;;
77226;SDS011;66234;47.642;19.144;2023-04-25T05:53:17;1.10;;;0.60;;
77226;SDS011;66234;47.642;19.144;2023-04-25T05:56:27;2.63;;;0.77;;
77226;SDS011;66234;47.642;19.144;2023-04-25T05:59:31;0.77;;;0.47;;
77226;SDS011;66234;47.642;19.144;2023-04-25T06:02:34;0.90;;;0.50;;
77226;SDS011;66234;47.642;19.144;2023-04-25T06:05:37;0.90;;;0.50;;
77226;SDS011;66234;47.642;19.144;2023-04-25T06:08:40;1.03;;;0.43;;
77226;SDS011;66234;47.642;19.144;2023-04-25T06:11:46;0.60;;;0.30;;
77226;SDS011;66234;47.642;19.144;2023-04-25T06:14:48;1.80;;;0.80;;
77226;SDS011;66234;47.642;19.144;2023-04-25T06:17:51;1.55;;;0.68;;
77226;SDS011;66234;47.642;19.144;2023-04-25T06:20:54;0.93;;;0.70;;
77226;SDS011;66234;47.642;19.144;2023-04-25T06:23:58;2.30;;;0.80;;
77226;SDS011;66234;47.642;19.144;2023-04-25T06:27:00;3.03;;;0.73;;
77226;SDS011;66234;47.642;19.144;2023-04-25T06:30:03;2.15;;;1.17;;
77226;SDS011;66234;47.642;19.144;2023-04-25T06:33:08;1.33;;;0.90;;
77226;SDS011;66234;47.642;19.144;2023-04-25T06:36:20;1.33;;;0.83;;
77226;SDS011;66234;47.642;19.144;2023-04-25T06:40:07;1.93;;;1.30;;
77226;SDS011;66234;47.642;19.144;2023-04-25T06:43:11;2.00;;;1.25;;
77226;SDS011;66234;47.642;19.144;2023-04-25T06:46:27;1.80;;;0.90;;
77226;SDS011;66234;47.642;19.144;2023-04-25T06:49:37;1.10;;;0.80;;
77226;SDS011;66234;47.642;19.144;2023-04-25T06:52:40;2.00;;;1.20;;
77226;SDS011;66234;47.642;19.144;2023-04-25T06:55:42;4.43;;;1.90;;
77226;SDS011;66234;47.642;19.144;2023-04-25T06:58:58;1.98;;;0.90;;
77226;SDS011;66234;47.642;19.144;2023-04-25T07:02:08;1.95;;;1.35;;
77226;SDS011;66234;47.642;19.144;2023-04-25T07:05:11;3.00;;;1.55;;
77226;SDS011;66234;47.642;19.144;2023-04-25T07:08:14;2.13;;;0.93;;
77226;SDS011;66234;47.642;19.144;2023-04-25T07:11:17;4.43;;;1.73;;
77226;SDS011;66234;47.642;19.144;2023-04-25T07:14:20;1.95;;;1.25;;
77226;SDS011;66234;47.642;19.144;2023-04-25T07:17:23;1.90;;;1.40;;
77226;SDS011;66234;47.642;19.144;2023-04-25T07:20:27;2.20;;;1.73;;
77226;SDS011;66234;47.642;19.144;2023-04-25T07:23:31;3.00;;;1.70;;
77226;SDS011;66234;47.642;19.144;2023-04-25T07:26:36;3.73;;;2.00;;
77226;SDS011;66234;47.642;19.144;2023-04-25T07:30:05;2.03;;;1.58;;
77226;SDS011;66234;47.642;19.144;2023-04-25T07:33:10;2.72;;;1.98;;
77226;SDS011;66234;47.642;19.144;2023-04-25T07:36:13;3.10;;;2.00;;
77226;SDS011;66234;47.642;19.144;2023-04-25T07:39:17;3.03;;;1.93;;
77226;SDS011;66234;47.642;19.144;2023-04-25T07:42:20;3.60;;;2.50;;
77226;SDS011;66234;47.642;19.144;2023-04-25T07:45:23;2.63;;;2.03;;
77226;SDS011;66234;47.642;19.144;2023-04-25T07:48:27;2.85;;;2.55;;
77226;SDS011;66234;47.642;19.144;2023-04-25T07:51:31;3.10;;;2.20;;
77226;SDS011;66234;47.642;19.144;2023-04-25T07:54:40;2.97;;;2.60;;
77226;SDS011;66234;47.642;19.144;2023-04-25T07:57:51;2.07;;;1.80;;
77226;SDS011;66234;47.642;19.144;2023-04-25T08:00:55;2.50;;;1.83;;
77226;SDS011;66234;47.642;19.144;2023-04-25T08:04:09;3.47;;;1.88;;
77226;SDS011;66234;47.642;19.144;2023-04-25T08:07:26;3.53;;;2.45;;
77226;SDS011;66234;47.642;19.144;2023-04-25T08:10:31;2.70;;;1.73;;
77226;SDS011;66234;47.642;19.144;2023-04-25T08:13:34;3.10;;;2.40;;
77226;SDS011;66234;47.642;19.144;2023-04-25T08:16:38;2.78;;;2.13;;
77226;SDS011;66234;47.642;19.144;2023-04-25T08:19:41;2.97;;;1.90;;
77226;SDS011;66234;47.642;19.144;2023-04-25T08:22:53;2.38;;;1.70;;
77226;SDS011;66234;47.642;19.144;2023-04-25T08:26:03;3.97;;;1.90;;
77226;SDS011;66234;47.642;19.144;2023-04-25T08:29:10;2.47;;;1.80;;
77226;SDS011;66234;47.642;19.144;2023-04-25T08:32:15;2.40;;;1.77;;
77226;SDS011;66234;47.642;19.144;2023-04-25T08:35:31;2.72;;;2.00;;
77226;SDS011;66234;47.642;19.144;2023-04-25T08:38:35;2.60;;;1.98;;
77226;SDS011;66234;47.642;19.144;2023-04-25T08:41:41;2.20;;;1.43;;
77226;SDS011;66234;47.642;19.144;2023-04-25T08:44:45;1.60;;;1.50;;
77226;SDS011;66234;47.642;19.144;2023-04-25T08:47:48;2.20;;;1.40;;
77226;SDS011;66234;47.642;19.144;2023-04-25T08:50:55;3.08;;;1.40;;
77226;SDS011;66234;47.642;19.144;2023-04-25T08:54:08;1.55;;;1.45;;
77226;SDS011;66234;47.642;19.144;2023-04-25T08:57:33;1.80;;;1.40;;
77226;SDS011;66234;47.642;19.144;2023-04-25T09:00:37;1.80;;;0.90;;
77226;SDS011;66234;47.642;19.144;2023-04-25T09:03:39;4.10;;;1.52;;
77226;SDS011;66234;47.642;19.144;2023-04-25T09:06:44;2.17;;;1.48;;
77226;SDS011;66234;47.642;19.144;2023-04-25T09:09:48;1.60;;;1.23;;
77226;SDS011;66234;47.642;19.144;2023-04-25T09:13:04;2.13;;;1.60;;
77226;SDS011;66234;47.642;19.144;2023-04-25T09:20:12;1.60;;;1.02;;
77226;SDS011;66234;47.642;19.144;2023-04-25T09:23:17;2.15;;;1.50;;
77226;SDS011;66234;47.642;19.144;2023-04-25T09:26:22;2.63;;;1.23;;
77226;SDS011;66234;47.642;19.144;2023-04-25T09:29:32;1.87;;;1.43;;
77226;SDS011;66234;47.642;19.144;2023-04-25T09:32:40;3.53;;;1.30;;
77226;SDS011;66234;47.642;19.144;2023-04-25T09:35:45;1.42;;;1.10;;
77226;SDS011;66234;47.642;19.144;2023-04-25T09:38:57;0.98;;;0.85;;
77226;SDS011;66234;47.642;19.144;2023-04-25T09:42:04;2.25;;;0.93;;
77226;SDS011;66234;47.642;19.144;2023-04-25T09:45:08;2.47;;;1.13;;
77226;SDS011;66234;47.642;19.144;2023-04-25T09:48:17;1.40;;;0.73;;
77226;SDS011;66234;47.642;19.144;2023-04-25T09:51:24;2.60;;;1.02;;
77226;SDS011;66234;47.642;19.144;2023-04-25T09:54:32;2.60;;;0.93;;
77226;SDS011;66234;47.642;19.144;2023-04-25T09:57:42;0.82;;;0.40;;
77226;SDS011;66234;47.642;19.144;2023-04-25T10:00:47;0.80;;;0.50;;
77226;SDS011;66234;47.642;19.144;2023-04-25T10:04:02;0.77;;;0.40;;
77226;SDS011;66234;47.642;19.144;2023-04-25T10:07:41;0.40;;;0.20;;
77226;SDS011;66234;47.642;19.144;2023-04-25T10:10:49;0.93;;;0.47;;
77226;SDS011;66234;47.642;19.144;2023-04-25T10:13:52;0.80;;;0.40;;
77226;SDS011;66234;47.642;19.144;2023-04-25T10:16:55;0.40;;;0.20;;
77226;SDS011;66234;47.642;19.144;2023-04-25T10:20:01;1.23;;;0.90;;
77226;SDS011;66234;47.642;19.144;2023-04-25T10:23:14;0.75;;;0.43;;
77226;SDS011;66234;47.642;19.144;2023-04-25T10:26:19;0.70;;;0.38;;
77226;SDS011;66234;47.642;19.144;2023-04-25T10:29:25;0.75;;;0.32;;
77226;SDS011;66234;47.642;19.144;2023-04-25T10:32:30;0.60;;;0.30;;
77226;SDS011;66234;47.642;19.144;2023-04-25T10:35:33;1.07;;;0.33;;
77226;SDS011;66234;47.642;19.144;2023-04-25T10:38:37;1.58;;;0.30;;
77226;SDS011;66234;47.642;19.144;2023-04-25T10:41:47;1.05;;;0.30;;
77226;SDS011;66234;47.642;19.144;2023-04-25T10:45:01;0.68;;;0.30;;
77226;SDS011;66234;47.642;19.144;2023-04-25T10:48:24;0.60;;;0.30;;
77226;SDS011;66234;47.642;19.144;2023-04-25T10:51:33;0.50;;;0.30;;
77226;SDS011;66234;47.642;19.144;2023-04-25T10:54:56;0.75;;;0.32;;
77226;SDS011;66234;47.642;19.144;2023-04-25T10:58:00;0.30;;;0.20;;
77226;SDS011;66234;47.642;19.144;2023-04-25T11:01:03;0.73;;;0.30;;
77226;SDS011;66234;47.642;19.144;2023-04-25T11:04:18;0.20;;;0.10;;
77226;SDS011;66234;47.642;19.144;2023-04-25T11:07:49;0.30;;;0.17;;
77226;SDS011;66234;47.642;19.144;2023-04-25T11:11:08;1.63;;;0.20;;
77226;SDS011;66234;47.642;19.144;2023-04-25T11:14:11;0.77;;;0.20;;
77226;SDS011;66234;47.642;19.144;2023-04-25T11:17:14;0.73;;;0.30;;
77226;SDS011;66234;47.642;19.144;2023-04-25T11:20:17;0.30;;;0.00;;
77226;SDS011;66234;47.642;19.144;2023-04-25T11:23:20;0.43;;;0.13;;
77226;SDS011;66234;47.642;19.144;2023-04-25T11:26:24;0.30;;;0.13;;
77226;SDS011;66234;47.642;19.144;2023-04-25T11:29:27;1.38;;;0.10;;
77226;SDS011;66234;47.642;19.144;2023-04-25T11:32:39;0.70;;;0.20;;
77226;SDS011;66234;47.642;19.144;2023-04-25T11:35:43;0.10;;;0.10;;
77226;SDS011;66234;47.642;19.144;2023-04-25T11:38:46;1.50;;;0.30;;
77226;SDS011;66234;47.642;19.144;2023-04-25T11:41:49;0.40;;;0.15;;
77226;SDS011;66234;47.642;19.144;2023-04-25T11:44:52;1.13;;;0.85;;
77226;SDS011;66234;47.642;19.144;2023-04-25T11:47:55;0.35;;;0.30;;
77226;SDS011;66234;47.642;19.144;2023-04-25T11:50:59;0.20;;;0.00;;
77226;SDS011;66234;47.642;19.144;2023-04-25T11:54:02;0.40;;;0.10;;
77226;SDS011;66234;47.642;19.144;2023-04-25T11:57:05;0.22;;;0.00;;
77226;SDS011;66234;47.642;19.144;2023-04-25T12:00:12;0.20;;;0.10;;
77226;SDS011;66234;47.642;19.144;2023-04-25T12:03:20;0.20;;;0.10;;
77226;SDS011;66234;47.642;19.144;2023-04-25T12:06:28;0.40;;;0.20;;
77226;SDS011;66234;47.642;19.144;2023-04-25T12:09:32;0.40;;;0.20;;
77226;SDS011;66234;47.642;19.144;2023-04-25T12:12:37;1.00;;;0.10;;
77226;SDS011;66234;47.642;19.144;2023-04-25T12:15:43;0.38;;;0.10;;
77226;SDS011;66234;47.642;19.144;2023-04-25T12:18:46;0.30;;;0.20;;
77226;SDS011;66234;47.642;19.144;2023-04-25T12:21:49;0.30;;;0.10;;
77226;SDS011;66234;47.642;19.144;2023-04-25T12:25:00;0.63;;;0.30;;
77226;SDS011;66234;47.642;19.144;2023-04-25T12:28:16;0.70;;;0.10;;
77226;SDS011;66234;47.642;19.144;2023-04-25T12:31:37;1.20;;;0.30;;
77226;SDS011;66234;47.642;19.144;2023-04-25T12:34:42;0.85;;;0.50;;
77226;SDS011;66234;47.642;19.144;2023-04-25T12:37:44;0.87;;;0.60;;
77226;SDS011;66234;47.642;19.144;2023-04-25T12:40:49;0.50;;;0.20;;
77226;SDS011;66234;47.642;19.144;2023-04-25T12:43:52;0.32;;;0.30;;
77226;SDS011;66234;47.642;19.144;2023-04-25T12:46:55;0.47;;;0.40;;
77226;SDS011;66234;47.642;19.144;2023-04-25T12:49:57;3.03;;;0.63;;
77226;SDS011;66234;47.642;19.144;2023-04-25T12:53:00;0.47;;;0.37;;
77226;SDS011;66234;47.642;19.144;2023-04-25T12:56:03;0.80;;;0.80;;
77226;SDS011;66234;47.642;19.144;2023-04-25T12:59:06;1.05;;;0.73;;
77226;SDS011;66234;47.642;19.144;2023-04-25T13:02:08;0.63;;;0.63;;
77226;SDS011;66234;47.642;19.144;2023-04-25T13:05:12;3.25;;;0.57;;
77226;SDS011;66234;47.642;19.144;2023-04-25T13:08:15;0.60;;;0.60;;
77226;SDS011;66234;47.642;19.144;2023-04-25T13:11:18;0.50;;;0.50;;
77226;SDS011;66234;47.642;19.144;2023-04-25T13:14:21;0.85;;;0.68;;
77226;SDS011;66234;47.642;19.144;2023-04-25T13:17:23;0.80;;;0.70;;
77226;SDS011;66234;47.642;19.144;2023-04-25T13:20:28;1.23;;;0.68;;
77226;SDS011;66234;47.642;19.144;2023-04-25T13:23:31;0.70;;;0.67;;
77226;SDS011;66234;47.642;19.144;2023-04-25T13:26:33;0.97;;;0.80;;
77226;SDS011;66234;47.642;19.144;2023-04-25T13:29:36;1.55;;;0.73;;
77226;SDS011;66234;47.642;19.144;2023-04-25T13:32:40;0.80;;;0.80;;
77226;SDS011;66234;47.642;19.144;2023-04-25T13:35:44;1.02;;;0.60;;
77226;SDS011;66234;47.642;19.144;2023-04-25T13:38:49;1.23;;;0.90;;
77226;SDS011;66234;47.642;19.144;2023-04-25T13:41:52;1.47;;;0.80;;
77226;SDS011;66234;47.642;19.144;2023-04-25T13:44:55;0.80;;;0.75;;
77226;SDS011;66234;47.642;19.144;2023-04-25T13:47:57;2.45;;;1.00;;
77226;SDS011;66234;47.642;19.144;2023-04-25T13:51:00;0.70;;;0.70;;
77226;SDS011;66234;47.642;19.144;2023-04-25T13:54:03;1.15;;;1.05;;
77226;SDS011;66234;47.642;19.144;2023-04-25T13:57:05;1.70;;;1.20;;
77226;SDS011;66234;47.642;19.144;2023-04-25T14:00:09;0.80;;;0.80;;
77226;SDS011;66234;47.642;19.144;2023-04-25T14:03:12;1.83;;;0.98;;
77226;SDS011;66234;47.642;19.144;2023-04-25T14:06:15;1.92;;;1.30;;
77226;SDS011;66234;47.642;19.144;2023-04-25T14:09:25;2.63;;;1.15;;
77226;SDS011;66234;47.642;19.144;2023-04-25T14:12:30;1.30;;;1.20;;
77226;SDS011;66234;47.642;19.144;2023-04-25T14:15:33;1.20;;;1.10;;
77226;SDS011;66234;47.642;19.144;2023-04-25T14:18:36;1.00;;;1.00;;
77226;SDS011;66234;47.642;19.144;2023-04-25T14:21:39;1.17;;;1.08;;
77226;SDS011;66234;47.642;19.144;2023-04-25T14:24:43;1.80;;;1.15;;
77226;SDS011;66234;47.642;19.144;2023-04-25T14:27:47;1.20;;;1.10;;
77226;SDS011;66234;47.642;19.144;2023-04-25T14:30:52;3.88;;;1.42;;
77226;SDS011;66234;47.642;19.144;2023-04-25T14:33:55;0.77;;;0.77;;
77226;SDS011;66234;47.642;19.144;2023-04-25T14:37:00;1.13;;;1.00;;
77226;SDS011;66234;47.642;19.144;2023-04-25T14:40:04;1.03;;;0.97;;
77226;SDS011;66234;47.642;19.144;2023-04-25T14:43:07;0.93;;;0.93;;
77226;SDS011;66234;47.642;19.144;2023-04-25T14:46:10;1.45;;;1.10;;
77226;SDS011;66234;47.642;19.144;2023-04-25T14:49:13;1.27;;;1.17;;
77226;SDS011;66234;47.642;19.144;2023-04-25T14:52:16;1.42;;;1.33;;
77226;SDS011;66234;47.642;19.144;2023-04-25T14:55:19;1.60;;;1.00;;
77226;SDS011;66234;47.642;19.144;2023-04-25T14:58:22;1.10;;;1.00;;
77226;SDS011;66234;47.642;19.144;2023-04-25T15:01:25;1.98;;;1.00;;
77226;SDS011;66234;47.642;19.144;2023-04-25T15:04:28;1.13;;;0.65;;
77226;SDS011;66234;47.642;19.144;2023-04-25T15:07:31;0.82;;;0.80;;
77226;SDS011;66234;47.642;19.144;2023-04-25T15:10:36;0.90;;;0.77;;
77226;SDS011;66234;47.642;19.144;2023-04-25T15:13:39;1.60;;;0.70;;
77226;SDS011;66234;47.642;19.144;2023-04-25T15:16:42;1.60;;;0.73;;
77226;SDS011;66234;47.642;19.144;2023-04-25T15:19:45;0.80;;;0.60;;
77226;SDS011;66234;47.642;19.144;2023-04-25T15:22:48;2.45;;;0.98;;
77226;SDS011;66234;47.642;19.144;2023-04-25T15:25:50;2.00;;;0.90;;
77226;SDS011;66234;47.642;19.144;2023-04-25T15:28:54;1.17;;;0.73;;
77226;SDS011;66234;47.642;19.144;2023-04-25T15:31:58;0.90;;;0.57;;
77226;SDS011;66234;47.642;19.144;2023-04-25T15:35:02;1.77;;;0.60;;
77226;SDS011;66234;47.642;19.144;2023-04-25T15:38:06;2.63;;;1.00;;
77226;SDS011;66234;47.642;19.144;2023-04-25T15:41:10;1.63;;;0.90;;
77226;SDS011;66234;47.642;19.144;2023-04-25T15:44:14;2.27;;;0.80;;
77226;SDS011;66234;47.642;19.144;2023-04-25T15:47:16;1.60;;;0.90;;
77226;SDS011;66234;47.642;19.144;2023-04-25T15:50:20;2.17;;;1.10;;
77226;SDS011;66234;47.642;19.144;2023-04-25T15:53:22;1.05;;;0.95;;
77226;SDS011;66234;47.642;19.144;2023-04-25T15:56:25;1.57;;;0.90;;
77226;SDS011;66234;47.642;19.144;2023-04-25T15:59:28;1.03;;;1.03;;
77226;SDS011;66234;47.642;19.144;2023-04-25T16:02:30;1.08;;;0.98;;
77226;SDS011;66234;47.642;19.144;2023-04-25T16:05:33;1.20;;;1.10;;
77226;SDS011;66234;47.642;19.144;2023-04-25T16:08:36;1.15;;;1.05;;
77226;SDS011;66234;47.642;19.144;2023-04-25T16:11:38;1.70;;;1.17;;
77226;SDS011;66234;47.642;19.144;2023-04-25T16:14:41;1.47;;;1.10;;
77226;SDS011;66234;47.642;19.144;2023-04-25T16:17:43;0.98;;;0.82;;
77226;SDS011;66234;47.642;19.144;2023-04-25T16:20:46;1.05;;;0.95;;
77226;SDS011;66234;47.642;19.144;2023-04-25T16:23:49;1.98;;;1.10;;
77226;SDS011;66234;47.642;19.144;2023-04-25T16:26:51;1.67;;;0.93;;
77226;SDS011;66234;47.642;19.144;2023-04-25T16:29:54;1.63;;;1.20;;
77226;SDS011;66234;47.642;19.144;2023-04-25T16:32:57;2.33;;;0.90;;
77226;SDS011;66234;47.642;19.144;2023-04-25T16:35:59;1.70;;;1.15;;
77226;SDS011;66234;47.642;19.144;2023-04-25T16:39:02;2.03;;;1.20;;
77226;SDS011;66234;47.642;19.144;2023-04-25T16:42:05;2.50;;;1.17;;
77226;SDS011;66234;47.642;19.144;2023-04-25T16:45:08;2.57;;;1.00;;
77226;SDS011;66234;47.642;19.144;2023-04-25T16:48:10;2.17;;;1.35;;
77226;SDS011;66234;47.642;19.144;2023-04-25T16:51:14;1.55;;;1.15;;
77226;SDS011;66234;47.642;19.144;2023-04-25T16:54:17;3.67;;;1.48;;
77226;SDS011;66234;47.642;19.144;2023-04-25T16:57:19;3.67;;;1.60;;
77226;SDS011;66234;47.642;19.144;2023-04-25T17:00:22;2.47;;;1.70;;
77226;SDS011;66234;47.642;19.144;2023-04-25T17:03:25;2.88;;;1.90;;
77226;SDS011;66234;47.642;19.144;2023-04-25T17:06:28;3.13;;;1.80;;
77226;SDS011;66234;47.642;19.144;2023-04-25T17:09:31;3.45;;;1.77;;
77226;SDS011;66234;47.642;19.144;2023-04-25T17:12:34;3.80;;;1.90;;
77226;SDS011;66234;47.642;19.144;2023-04-25T17:15:36;3.10;;;1.70;;
77226;SDS011;66234;47.642;19.144;2023-04-25T17:18:39;2.40;;;2.00;;
77226;SDS011;66234;47.642;19.144;2023-04-25T17:21:43;2.28;;;1.70;;
77226;SDS011;66234;47.642;19.144;2023-04-25T17:24:46;2.25;;;1.65;;
77226;SDS011;66234;47.642;19.144;2023-04-25T17:27:49;3.33;;;1.97;;
77226;SDS011;66234;47.642;19.144;2023-04-25T17:30:52;2.30;;;1.40;;
77226;SDS011;66234;47.642;19.144;2023-04-25T17:33:55;3.03;;;1.90;;
77226;SDS011;66234;47.642;19.144;2023-04-25T17:36:59;2.65;;;1.52;;
77226;SDS011;66234;47.642;19.144;2023-04-25T17:40:02;2.65;;;1.55;;
77226;SDS011;66234;47.642;19.144;2023-04-25T17:43:07;6.63;;;2.13;;
77226;SDS011;66234;47.642;19.144;2023-04-25T17:46:10;2.77;;;1.30;;
77226;SDS011;66234;47.642;19.144;2023-04-25T17:49:13;3.83;;;1.70;;
77226;SDS011;66234;47.642;19.144;2023-04-25T17:52:15;2.28;;;1.70;;
77226;SDS011;66234;47.642;19.144;2023-04-25T17:55:18;2.55;;;1.75;;
77226;SDS011;66234;47.642;19.144;2023-04-25T17:58:21;2.47;;;1.40;;
77226;SDS011;66234;47.642;19.144;2023-04-25T18:01:23;2.07;;;1.33;;
77226;SDS011;66234;47.642;19.144;2023-04-25T18:04:29;2.50;;;1.50;;
77226;SDS011;66234;47.642;19.144;2023-04-25T18:07:32;2.35;;;1.38;;
77226;SDS011;66234;47.642;19.144;2023-04-25T18:10:35;2.35;;;1.50;;
77226;SDS011;66234;47.642;19.144;2023-04-25T18:13:37;2.43;;;1.67;;
77226;SDS011;66234;47.642;19.144;2023-04-25T18:16:41;2.67;;;2.00;;
77226;SDS011;66234;47.642;19.144;2023-04-25T18:19:45;3.22;;;1.90;;
77226;SDS011;66234;47.642;19.144;2023-04-25T18:22:48;2.75;;;1.77;;
77226;SDS011;66234;47.642;19.144;2023-04-25T18:25:50;2.13;;;1.70;;